Appleton, Illinois
Current Conditions -  °F | °C
As of 5:55 AM on Friday 19 Dec 2014 (Local Time) from KGBG Reporting Station
Clear Clear  
Wind Chill: 20°   Ceiling: Unl
Heat Index: 20°   Visibility: 7mi
Dew Point: 18°   Wind: 0mph
Humidity: 91%   Direction: NA
Pressure: 30.3"   Gusts: NA
Location:  40.9602°N, 90.1517°W
Report Text: KGBG 191155Z AUTO 00000KT 7SM CLR M07/M08 A3030 RMK AO2 T10671079 11049 21069
Loading
Personal Weather Stations






























Interactive Weather Map New forecast layout! Learn more

10-Day Weather Forecast

Advertisements
Track Severe Weather on mobile